Map

Track Data

SID SEASON NUMBER BASIN SUBBASIN NAME ISO_TIME NATURE LAT LON WMO_WIND WMO_PRES WMO_AGENCY TRACK_TYPE DIST2LAND LANDFALL IFLAG USA_AGENCY USA_ATCF_ID USA_LAT USA_LON USA_RECORD USA_STATUS USA_WIND USA_PRES USA_SSHS USA_R34_NE USA_R34_SE USA_R34_SW USA_R34_NW USA_R50_NE USA_R50_SE USA_R50_SW USA_R50_NW USA_R64_NE USA_R64_SE USA_R64_SW USA_R64_NW USA_POCI USA_ROCI USA_RMW USA_EYE TOKYO_LAT TOKYO_LON TOKYO_GRADE TOKYO_WIND TOKYO_PRES TOKYO_R50_DIR TOKYO_R50_LONG TOKYO_R50_SHORT TOKYO_R30_DIR TOKYO_R30_LONG TOKYO_R30_SHORT TOKYO_LAND CMA_LAT CMA_LON CMA_CAT CMA_WIND CMA_PRES HKO_LAT HKO_LON HKO_CAT HKO_WIND HKO_PRES NEWDELHI_LAT NEWDELHI_LON NEWDELHI_GRADE NEWDELHI_WIND NEWDELHI_PRES NEWDELHI_CI NEWDELHI_DP NEWDELHI_POCI REUNION_LAT REUNION_LON REUNION_TYPE REUNION_WIND REUNION_PRES REUNION_TNUM REUNION_CI REUNION_RMW REUNION_R34_NE REUNION_R34_SE REUNION_R34_SW REUNION_R34_NW REUNION_R50_NE REUNION_R50_SE REUNION_R50_SW REUNION_R50_NW REUNION_R64_NE REUNION_R64_SE REUNION_R64_SW REUNION_R64_NW BOM_LAT BOM_LON BOM_TYPE BOM_WIND BOM_PRES BOM_TNUM BOM_CI BOM_RMW BOM_R34_NE BOM_R34_SE BOM_R34_SW BOM_R34_NW BOM_R50_NE BOM_R50_SE BOM_R50_SW BOM_R50_NW BOM_R64_NE BOM_R64_SE BOM_R64_SW BOM_R64_NW BOM_ROCI BOM_POCI BOM_EYE BOM_POS_METHOD BOM_PRES_METHOD NADI_LAT NADI_LON NADI_CAT NADI_WIND NADI_PRES WELLINGTON_LAT WELLINGTON_LON WELLINGTON_WIND WELLINGTON_PRES DS824_LAT DS824_LON DS824_STAGE DS824_WIND DS824_PRES TD9636_LAT TD9636_LON TD9636_STAGE TD9636_WIND TD9636_PRES TD9635_LAT TD9635_LON TD9635_WIND TD9635_PRES TD9635_ROCI NEUMANN_LAT NEUMANN_LON NEUMANN_CLASS NEUMANN_WIND NEUMANN_PRES MLC_LAT MLC_LON MLC_CLASS MLC_WIND MLC_PRES USA_GUST BOM_GUST BOM_GUST_PER REUNION_GUST REUNION_GUST_PER USA_SEAHGT USA_SEARAD_NE USA_SEARAD_SE USA_SEARAD_SW USA_SEARAD_NW STORM_SPEED STORM_DIR
1936144N14084 1936 13 NI BB NOT_NAMED 1936-05-23 00:00:00 TS 14.2000 84.4000 main 350 349 _________O____ -1 14.2000 84.4000 TC 30 6 65
1936144N14084 1936 13 NI BB NOT_NAMED 1936-05-23 03:00:00 TS 14.3251 84.6799 main 363 356 _________PO___ -1 14.3877 84.8198 TC 30 14.2000 84.4000 1 7 63
1936144N14084 1936 13 NI BB NOT_NAMED 1936-05-23 06:00:00 TS 14.5120 85.0189 main 372 372 _________OP___ -1 14.6000 85.2000 TC 30 14.3800 84.7473 1 8 56
1936144N14084 1936 13 NI BB NOT_NAMED 1936-05-23 09:00:00 TS 14.7447 85.3354 main 385 385 _________PP___ -1 14.8624 85.5152 TC 30 14.5878 85.0957 1 8 49
1936144N14084 1936 13 NI BB NOT_NAMED 1936-05-23 12:00:00 TS 15.0259 85.6231 main 387 376 _________OP___ -1 15.2000 85.8000 TC 30 14.8517 85.4463 1 9 42
1936144N14084 1936 13 NI BB NOT_NAMED 1936-05-23 15:00:00 TS 15.4137 85.9500 main 382 357 _________PO___ -1 15.6275 86.1000 TC 30 15.2000 85.8000 1 11 37
1936144N14084 1936 13 NI BB NOT_NAMED 1936-05-23 18:00:00 TS 15.8727 86.2770 main 356 339 _________OP___ -1 16.1000 86.4000 TC 30 15.6454 86.1541 1 12 34
1936144N14084 1936 13 NI BB NOT_NAMED 1936-05-23 21:00:00 TS 16.3701 86.6130 main 338 330 _________PP___ -1 16.6026 86.7373 TC 30 16.1376 86.4887 1 11 32
1936144N14084 1936 13 NI BB NOT_NAMED 1936-05-24 00:00:00 TS 16.8055 86.8895 main 330 317 _________OP___ -1 17.0000 87.0000 TC 30 16.6111 86.7791 1 8 30
1936144N14084 1936 13 NI BB NOT_NAMED 1936-05-24 03:00:00 TS 17.0725 87.0439 main 317 317 _________PO___ -1 17.1449 87.0878 TC 30 17.0000 87.0000 1 5 28
1936144N14084 1936 13 NI BB NOT_NAMED 1936-05-24 06:00:00 TS 17.2050 87.1134 main 319 309 _________OP___ -1 17.2000 87.1000 TC 30 17.2100 87.1268 1 3 24
1936144N14084 1936 13 NI BB NOT_NAMED 1936-05-24 09:00:00 TS 17.3373 87.1667 main 313 292 _________PP___ -1 17.3425 87.1500 TC 30 17.3321 87.1835 1 3 17
1936144N14084 1936 13 NI BB NOT_NAMED 1936-05-24 12:00:00 TS 17.4566 87.1992 main 292 281 _________OP___ -1 17.5000 87.2000 TC 30 17.4132 87.1984 1 2 14
1936144N14084 1936 13 NI BB NOT_NAMED 1936-05-24 15:00:00 TS 17.5713 87.2287 main 281 274 _________PO___ -1 17.6425 87.2575 TC 30 17.5000 87.2000 1 3 15
1936144N14084 1936 13 NI BB NOT_NAMED 1936-05-24 18:00:00 TS 17.7323 87.2681 main 274 253 _________OP___ -1 17.8000 87.3000 TC 30 17.6647 87.2363 1 4 8
1936144N14084 1936 13 NI BB NOT_NAMED 1936-05-24 21:00:00 TS 17.9212 87.2863 main 253 232 _________PP___ -1 18.0000 87.3075 TC 30 17.8425 87.2650 1 4 0
1936144N14084 1936 13 NI BB NOT_NAMED 1936-05-25 00:00:00 TS 18.1120 87.2931 main 232 212 _________OP___ -1 18.2000 87.3000 TC 30 18.0241 87.2862 1 4 4
1936144N14084 1936 13 NI BB NOT_NAMED 1936-05-25 03:00:00 TS 18.2788 87.3000 main 212 202 _________PO___ -1 18.3575 87.3000 TC 30 18.2000 87.3000 1 3 0
1936144N14084 1936 13 NI BB NOT_NAMED 1936-05-25 06:00:00 TS 18.4266 87.3016 main 202 182 _________OP___ -1 18.5000 87.3000 TC 30 18.3531 87.3032 1 3 5
1936144N14084 1936 13 NI BB NOT_NAMED 1936-05-25 09:00:00 TS 18.5712 87.3000 main 182 173 _________PP___ -1 18.6425 87.3000 TC 30 18.5000 87.3001 1 3 0
1936144N14084 1936 13 NI BB NOT_NAMED 1936-05-25 12:00:00 TS 18.7234 87.2985 main 173 155 _________OP___ -1 18.8000 87.3000 TC 30 18.6469 87.2969 1 3 0
1936144N14084 1936 13 NI BB NOT_NAMED 1936-05-25 15:00:00 TS 18.9000 87.2963 main 155 137 _________PO___ -1 19.0000 87.2925 TC 38 18.8000 87.3000 1 4 0
1936144N14084 1936 13 NI BB NOT_NAMED 1936-05-25 18:00:00 TS 19.0778 87.3049 main 137 129 _________OP___ -1 19.2000 87.3000 TC 47 18.9556 87.3098 1 3 6
1936144N14084 1936 13 NI BB NOT_NAMED 1936-05-25 21:00:00 TS 19.2312 87.3351 main 129 122 _________PP___ -1 19.3425 87.3425 TC 55 19.1200 87.3276 1 3 12
1936144N14084 1936 13 NI BB NOT_NAMED 1936-05-26 00:00:00 TS 19.3997 87.3783 main 124 107 _________OP___ -1 19.5000 87.4000 TC 64 19.2994 87.3567 1 4 11
1936144N14084 1936 13 NI BB NOT_NAMED 1936-05-26 03:00:00 TS 19.6175 87.4213 main 107 94 _________PO___ -1 19.7350 87.4425 TC 64 19.5000 87.4000 4 5 11
1936144N14084 1936 13 NI BB NOT_NAMED 1936-05-26 06:00:00 TS 19.8683 87.4803 main 94 83 _________OP___ -1 20.0000 87.5000 TC 64 19.7366 87.4605 4 5 15
1936144N14084 1936 13 NI BB NOT_NAMED 1936-05-26 09:00:00 TS 20.1250 87.5674 main 91 76 _________PP___ -1 20.2575 87.5999 TC 64 19.9925 87.5349 4 5 18
1936144N14084 1936 13 NI BB NOT_NAMED 1936-05-26 12:00:00 TS 20.3761 87.6584 main 80 73 _________OP___ -1 20.5000 87.7000 TC 64 20.2522 87.6168 4 5 17
1936144N14084 1936 13 NI BB NOT_NAMED 1936-05-26 15:00:00 TS 20.6037 87.7250 main 73 72 _________PO___ -1 20.7075 87.7501 TC 56 20.5000 87.7000 4 4 15
1936144N14084 1936 13 NI BB NOT_NAMED 1936-05-26 18:00:00 TS 20.8031 87.7856 main 83 73 _________OP___ -1 20.9000 87.8000 TC 49 20.7062 87.7711 4 4 18
1936144N14084 1936 13 NI BB NOT_NAMED 1936-05-26 21:00:00 TS 20.9962 87.8676 main 73 49 _________PP___ -1 21.0925 87.8925 TC 41 20.9000 87.8427 4 4 22
1936144N14084 1936 13 NI BB NOT_NAMED 1936-05-27 00:00:00 TS 21.1969 87.9590 main 49 30 _________OP___ -1 21.3000 88.0000 TC 34 21.0937 87.9180 4 5 21
1936144N14084 1936 13 NI BB NOT_NAMED 1936-05-27 03:00:00 TS 21.4212 88.0500 main 24 10 _________PO___ -1 21.5425 88.1000 TC 36 21.3000 88.0000 2 5 20
1936144N14084 1936 13 NI BB NOT_NAMED 1936-05-27 06:00:00 TS 21.6596 88.1345 main 10 0 _________OP___ -1 21.8000 88.2000 TC 39 21.5192 88.0689 2 5 18
1936144N14084 1936 13 NI BB NOT_NAMED 1936-05-27 09:00:00 TS 21.8949 88.2167 main 0 0 _________PP___ -1 22.0350 88.2852 TC 42 21.7548 88.1483 2 5 20
1936144N14084 1936 13 NI BB NOT_NAMED 1936-05-27 12:00:00 TS 22.1565 88.3267 main 0 0 _________OP___ -1 22.3000 88.4000 TC 45 22.0129 88.2535 2 6 23
1936144N14084 1936 13 NI BB NOT_NAMED 1936-05-27 15:00:00 TS 22.4675 88.4850 main 0 0 _________PO___ -1 22.6350 88.5701 TC 41 22.3000 88.4000 3 7 28
1936144N14084 1936 13 NI BB NOT_NAMED 1936-05-27 18:00:00 TS 22.7827 88.6850 main 0 0 _________OP___ -1 23.0000 88.8000 TC 37 22.6197 88.5987 3 8 33
1936144N14084 1936 13 NI BB NOT_NAMED 1936-05-27 21:00:00 TS 23.1214 88.9383 main 0 0 _________PP___ -1 23.3552 89.0847 TC 33 22.9656 88.8407 3 8 36
1936144N14084 1936 13 NI BB NOT_NAMED 1936-05-28 00:00:00 TS 23.4525 89.2083 main 0 0 _________OP___ -1 23.7000 89.4000 TC 30 23.3287 89.1125 3 7 36
1936144N14084 1936 13 NI BB NOT_NAMED 1936-05-28 03:00:00 NR 23.7000 89.4000 main 0 __________O___ -1 TC 23.7000 89.4000 1 6 35

About IBTrACS Database

This database is a web-friendly format of International Best Track Archive for Climate Stewardship (IBTrACS), a global best track data archive curated by NOAA dating back to 1842.

Updated: 2021-11-26